Time;durP1;ratioP1;P1;durP2;ratioP2;P2;SDS_P1;SDS_P2;PMS_P1;PMS_P2;Temp;Humidity;BMP_temperature;BMP_pressure;BME280_temperature;BME280_humidity;BME280_pressure;Samples;Min_cycle;Max_cycle;Signal;HPM_P1;HPM_P2
2022/08/26 00:00:33;;;;;;;3.78;2.10;;;;;;;25.07;84.80;100842.47;5045379;28;20033;-67
2022/08/26 00:02:59;;;;;;;5.95;2.30;;;;;;;24.94;85.20;100835.03;5018324;28;20123;-67
2022/08/26 00:05:24;;;;;;;7.10;2.60;;;;;;;24.92;85.87;100839.44;5037102;28;20116;-66
2022/08/26 00:07:50;;;;;;;3.33;2.47;;;;;;;24.93;86.12;100833.47;5028500;28;20128;-67
2022/08/26 00:10:17;;;;;;;3.55;2.03;;;;;;;24.74;86.59;100828.28;5018643;28;20029;-66
2022/08/26 00:12:43;;;;;;;4.30;2.25;;;;;;;24.80;86.58;100829.25;5036664;28;20029;-66
2022/08/26 00:15:12;;;;;;;7.35;2.53;;;;;;;24.73;86.97;100838.56;5018507;28;20037;-67
2022/08/26 00:17:37;;;;;;;3.35;2.22;;;;;;;24.79;86.78;100836.00;5029363;28;20045;-67
2022/08/26 00:20:05;;;;;;;3.15;2.20;;;;;;;24.76;87.34;100828.59;5034478;28;20034;-67
2022/08/26 00:22:31;;;;;;;4.30;2.22;;;;;;;24.78;87.16;100828.94;5029828;28;20106;-68
2022/08/26 00:24:57;;;;;;;5.05;2.75;;;;;;;24.76;87.39;100834.88;5032004;28;20125;-67
2022/08/26 00:27:22;;;;;;;3.97;2.20;;;;;;;24.82;87.20;100832.31;5035909;28;20072;-67
2022/08/26 00:29:48;;;;;;;4.10;2.70;;;;;;;24.75;87.11;100838.09;5014426;28;20033;-65
2022/08/26 00:32:13;;;;;;;2.80;2.05;;;;;;;24.72;87.75;100837.00;5032986;28;20041;-66
2022/08/26 00:34:39;;;;;;;3.83;2.15;;;;;;;24.57;88.38;100833.16;5029738;28;20035;-66
2022/08/26 00:37:04;;;;;;;5.97;2.53;;;;;;;24.53;88.90;100840.78;5034585;28;20037;-67
2022/08/26 00:39:30;;;;;;;4.63;2.40;;;;;;;24.63;88.50;100839.66;5029793;28;20041;-67
2022/08/26 00:41:56;;;;;;;4.40;2.55;;;;;;;24.78;87.97;100823.41;5033756;28;20060;-66
2022/08/26 00:44:22;;;;;;;4.20;2.38;;;;;;;24.76;88.04;100831.34;5035321;28;20116;-66
2022/08/26 00:46:53;;;;;;;5.55;2.95;;;;;;;24.71;88.48;100818.91;5036018;28;20041;-65
2022/08/26 00:49:28;;;;;;;9.68;2.50;;;;;;;24.73;88.38;100822.03;5047990;28;20509;-67
2022/08/26 00:51:57;;;;;;;4.20;2.33;;;;;;;24.70;88.40;100822.88;5024401;28;20028;-66
2022/08/26 00:54:25;;;;;;;4.63;2.55;;;;;;;24.82;88.07;100833.09;5034546;28;20061;-67
2022/08/26 00:56:56;;;;;;;6.03;2.50;;;;;;;24.75;88.37;100822.34;5048977;28;20128;-66
2022/08/26 00:59:22;;;;;;;2.50;2.15;;;;;;;24.77;87.87;100822.66;5023663;28;20465;-66
2022/08/26 01:01:48;;;;;;;4.10;2.25;;;;;;;24.85;87.83;100832.19;5032047;28;20039;-65
2022/08/26 01:04:18;;;;;;;5.55;2.63;;;;;;;24.87;87.40;100829.00;5017866;28;20036;-67
2022/08/26 01:06:45;;;;;;;4.53;2.22;;;;;;;24.78;87.63;100826.16;5044980;28;20025;-67
2022/08/26 01:09:11;;;;;;;4.43;2.10;;;;;;;24.71;88.02;100824.41;5042501;28;20029;-65
2022/08/26 01:11:37;;;;;;;4.05;1.90;;;;;;;24.66;88.70;100826.97;5021211;28;20076;-67
2022/08/26 01:14:05;;;;;;;3.47;2.15;;;;;;;24.55;89.03;100818.28;5016482;28;20037;-66
2022/08/26 01:16:32;;;;;;;4.20;2.47;;;;;;;24.56;89.30;100815.13;5034982;28;20033;-66
2022/08/26 01:19:06;;;;;;;4.65;2.38;;;;;;;24.54;89.48;100819.53;5030744;28;20033;-66
2022/08/26 01:21:40;;;;;;;4.25;2.38;;;;;;;24.64;88.74;100819.13;5027700;28;20029;-66
2022/08/26 01:24:06;;;;;;;8.63;2.92;;;;;;;24.54;89.28;100812.03;5040238;28;20044;-66
2022/08/26 01:26:35;;;;;;;8.32;2.63;;;;;;;24.59;88.82;100818.94;5047085;28;20489;-67
2022/08/26 01:29:04;;;;;;;5.15;2.63;;;;;;;24.65;88.71;100819.91;5031160;28;20032;-67
2022/08/26 01:31:40;;;;;;;4.25;2.58;;;;;;;24.55;89.15;100821.81;5035546;28;20115;-67
2022/08/26 01:34:31;;;;;;;3.42;2.08;;;;;;;24.58;89.03;100820.16;5034151;28;20444;-66
2022/08/26 01:37:08;;;;;;;6.03;2.60;;;;;;;24.45;89.52;100827.72;5046900;28;20393;-67
2022/08/26 01:39:35;;;;;;;4.38;2.60;;;;;;;24.32;90.39;100822.22;5035567;28;20068;-66
2022/08/26 01:42:02;;;;;;;3.88;2.42;;;;;;;24.31;90.46;100817.94;5013427;28;20021;-67
2022/08/26 01:44:35;;;;;;;3.78;2.50;;;;;;;24.40;90.34;100820.00;5042278;28;20065;-66
2022/08/26 01:47:01;;;;;;;6.28;2.72;;;;;;;24.29;90.84;100823.13;5031549;28;20041;-66
2022/08/26 01:49:27;;;;;;;7.68;3.13;;;;;;;24.24;91.09;100826.41;5033253;28;20112;-66
2022/08/26 01:51:55;;;;;;;3.75;2.15;;;;;;;24.30;90.75;100821.91;5032001;28;20037;-67
2022/08/26 01:54:23;;;;;;;3.75;2.35;;;;;;;24.32;90.16;100829.72;5038365;28;20077;-66
2022/08/26 01:56:51;;;;;;;3.83;2.45;;;;;;;24.26;90.81;100815.75;5030827;28;20107;-66
2022/08/26 01:59:19;;;;;;;3.92;2.25;;;;;;;24.17;90.85;100821.16;5025325;28;20125;-66
2022/08/26 02:01:46;;;;;;;3.15;2.30;;;;;;;24.24;90.54;100825.66;5036300;28;20041;-67
2022/08/26 02:04:20;;;;;;;6.65;2.60;;;;;;;24.20;90.91;100827.78;5025038;28;20143;-65
2022/08/26 02:06:46;;;;;;;4.20;2.35;;;;;;;24.12;91.24;100821.69;5016681;28;20059;-67
2022/08/26 02:09:12;;;;;;;6.80;2.75;;;;;;;24.04;91.90;100823.16;5033746;28;20760;-68
2022/08/26 02:11:38;;;;;;;4.00;2.45;;;;;;;24.06;91.88;100818.75;5017146;28;20537;-66
2022/08/26 02:14:20;;;;;;;4.60;2.58;;;;;;;23.90;92.47;100809.81;5035282;28;20142;-67
2022/08/26 02:16:49;;;;;;;6.40;2.45;;;;;;;23.88;92.16;100812.25;5044933;28;20036;-66
2022/08/26 02:19:18;;;;;;;3.40;2.25;;;;;;;23.86;93.09;100809.94;5031891;28;20071;-66
2022/08/26 02:21:47;;;;;;;4.97;2.72;;;;;;;23.99;92.27;100812.66;5017094;28;20056;-67
2022/08/26 02:24:20;;;;;;;5.93;2.55;;;;;;;23.81;92.74;100812.47;5013642;28;20470;-66
2022/08/26 02:26:47;;;;;;;6.05;2.13;;;;;;;23.74;93.37;100809.94;5033439;28;20048;-67
2022/08/26 02:29:24;;;;;;;3.75;2.20;;;;;;;23.77;92.89;100803.56;5033237;28;20171;-67
2022/08/26 02:31:50;;;;;;;5.47;2.78;;;;;;;23.75;92.70;100806.72;5043325;28;20409;-67
2022/08/26 02:34:22;;;;;;;4.03;2.42;;;;;;;23.75;92.84;100806.00;5033434;28;20033;-67
2022/08/26 02:36:48;;;;;;;4.18;2.40;;;;;;;23.67;93.28;100810.16;5031906;28;20036;-67
2022/08/26 02:39:15;;;;;;;4.65;2.25;;;;;;;23.66;93.09;100806.63;5029712;28;20022;-69
2022/08/26 02:41:41;;;;;;;3.80;2.58;;;;;;;23.72;93.20;100801.34;5033363;28;20041;-67
2022/08/26 02:44:08;;;;;;;5.35;2.35;;;;;;;23.69;93.17;100808.50;5015145;28;20036;-67
2022/08/26 02:46:33;;;;;;;10.25;2.75;;;;;;;23.67;93.46;100799.16;5016024;28;20033;-66
2022/08/26 02:49:00;;;;;;;3.92;2.60;;;;;;;23.78;93.33;100802.34;5026833;28;20583;-66
2022/08/26 02:51:26;;;;;;;6.50;2.20;;;;;;;23.68;93.50;100798.72;5032104;28;20103;-67
2022/08/26 02:53:52;;;;;;;6.95;2.40;;;;;;;23.64;93.92;100792.56;5033751;28;20029;-66
2022/08/26 02:56:18;;;;;;;4.78;2.28;;;;;;;23.56;93.93;100791.22;5031756;28;20478;-67
2022/08/26 02:58:43;;;;;;;6.05;2.45;;;;;;;23.70;93.18;100790.78;5021647;28;20069;-67
2022/08/26 03:01:19;;;;;;;3.28;2.33;;;;;;;23.77;93.06;100798.81;5025171;28;20072;-67
2022/08/26 03:03:45;;;;;;;4.95;2.63;;;;;;;23.60;93.87;100793.88;5033424;28;20083;-67
2022/08/26 03:06:10;;;;;;;6.97;2.38;;;;;;;23.56;94.16;100793.19;5042207;28;20435;-67
2022/08/26 03:08:36;;;;;;;6.45;2.38;;;;;;;23.46;94.35;100789.56;5030367;28;20022;-67
2022/08/26 03:11:01;;;;;;;4.40;2.55;;;;;;;23.55;93.97;100786.16;5029319;28;20033;-67
2022/08/26 03:13:27;;;;;;;7.85;2.78;;;;;;;23.49;94.72;100783.19;5029555;28;20041;-67
2022/08/26 03:15:52;;;;;;;5.90;2.80;;;;;;;23.54;94.61;100787.41;5037950;28;20028;-66
2022/08/26 03:18:17;;;;;;;6.60;2.65;;;;;;;23.51;94.88;100786.28;5039488;28;20029;-67
2022/08/26 03:20:44;;;;;;;4.47;2.60;;;;;;;23.57;93.99;100781.00;5038851;28;20073;-67
2022/08/26 03:23:09;;;;;;;6.47;2.47;;;;;;;23.50;94.58;100775.72;5026954;28;20429;-67
2022/08/26 03:25:35;;;;;;;4.63;2.55;;;;;;;23.60;94.13;100782.84;5036399;28;20128;-67
2022/08/26 03:28:00;;;;;;;5.60;2.88;;;;;;;23.59;93.89;100778.59;5034412;28;20044;-66
2022/08/26 03:30:41;;;;;;;2.55;1.95;;;;;;;23.54;94.47;100768.88;5038660;28;20480;-67
2022/08/26 03:33:10;;;;;;;5.30;2.70;;;;;;;23.39;94.91;100783.50;5028670;28;20071;-66
2022/08/26 03:35:37;;;;;;;5.47;2.40;;;;;;;23.42;94.76;100780.69;5022847;28;20457;-67
2022/08/26 03:38:03;;;;;;;8.32;2.75;;;;;;;23.43;95.10;100786.94;5012788;28;20033;-67
2022/08/26 03:40:32;;;;;;;5.60;2.80;;;;;;;23.35;95.60;100788.34;5038355;28;20059;-70
2022/08/26 03:42:58;;;;;;;6.05;3.08;;;;;;;23.32;95.51;100773.53;5052457;28;20041;-67
2022/08/26 03:45:24;;;;;;;5.65;2.17;;;;;;;23.18;95.55;100777.44;5050674;28;20112;-66
2022/08/26 03:47:50;;;;;;;5.45;2.53;;;;;;;23.27;95.51;100771.25;5049474;28;20116;-67
2022/08/26 03:50:19;;;;;;;5.95;2.70;;;;;;;23.25;95.77;100776.44;5047015;28;20101;-67
2022/08/26 03:52:45;;;;;;;6.38;2.78;;;;;;;23.18;95.93;100771.94;5034792;28;20032;-67
2022/08/26 03:55:12;;;;;;;7.90;3.05;;;;;;;23.03;96.30;100772.78;5038650;28;20129;-67
2022/08/26 03:57:37;;;;;;;8.57;3.03;;;;;;;23.00;96.39;100777.16;5039439;28;20080;-67
2022/08/26 04:00:05;;;;;;;4.22;2.58;;;;;;;22.99;96.72;100774.84;5027224;28;20057;-68
2022/08/26 04:02:34;;;;;;;;;;;;;;;23.03;97.11;100770.03;5034752;28;20044;-67
2022/08/26 04:04:59;;;;;;;5.25;2.97;;;;;;;23.02;96.86;100765.72;5037377;28;20683;-67
2022/08/26 04:07:25;;;;;;;9.05;3.03;;;;;;;22.99;97.28;100770.13;5037300;28;20053;-67
2022/08/26 04:09:55;;;;;;;6.70;2.80;;;;;;;23.04;96.89;100768.81;5037379;28;20037;-67
2022/08/26 04:17:37;;;;;;;9.88;2.60;;;;;;;23.13;96.44;100768.97;5024832;28;20313;-68
2022/08/26 04:20:05;;;;;;;4.95;2.42;;;;;;;23.17;96.97;100767.63;5020640;28;20550;-69
2022/08/26 04:22:30;;;;;;;4.25;2.90;;;;;;;23.22;96.29;100766.31;5029773;28;20488;-69
2022/08/26 04:24:56;;;;;;;11.98;3.22;;;;;;;23.16;96.17;100759.81;5021399;28;20030;-68
2022/08/26 04:27:22;;;;;;;5.40;3.30;;;;;;;23.02;96.77;100758.25;5024273;23;20100;-67
2022/08/26 04:29:47;;;;;;;5.28;2.65;;;;;;;23.17;96.32;100767.63;4999042;28;20401;-67
2022/08/26 04:32:13;;;;;;;6.75;2.70;;;;;;;22.96;96.71;100760.00;5012299;28;20030;-67
2022/08/26 04:34:38;;;;;;;7.97;3.05;;;;;;;22.92;97.63;100758.56;5014301;28;20112;-68
2022/08/26 04:37:04;;;;;;;7.40;2.97;;;;;;;23.10;97.23;100756.84;5010222;28;20046;-69
2022/08/26 04:39:30;;;;;;;5.40;3.08;;;;;;;23.22;96.07;100758.06;4999605;28;20040;-68
2022/08/26 04:41:55;;;;;;;6.53;3.05;;;;;;;23.11;96.63;100765.88;4996297;28;20030;-68
2022/08/26 04:44:23;;;;;;;4.63;3.13;;;;;;;23.09;96.59;100752.53;4997849;28;20118;-65
2022/08/26 04:46:49;;;;;;;5.32;2.47;;;;;;;23.21;96.79;100764.75;4999571;28;20038;-69
2022/08/26 04:49:14;;;;;;;6.97;3.22;;;;;;;23.20;96.45;100763.25;5001099;28;20101;-68
2022/08/26 04:51:40;;;;;;;7.65;2.90;;;;;;;23.25;96.41;100763.47;4991901;28;20050;-67
2022/08/26 04:54:05;;;;;;;7.10;2.83;;;;;;;23.19;96.42;100764.44;4997498;28;20061;-67
2022/08/26 04:56:42;;;;;;;3.80;2.60;;;;;;;23.18;97.07;100765.66;4998391;28;20030;-68
2022/08/26 04:59:14;;;;;;;8.95;3.08;;;;;;;23.32;96.77;100759.78;4993241;28;20046;-67
2022/08/26 05:01:45;;;;;;;6.30;3.30;;;;;;;23.40;95.74;100765.81;4993840;28;20124;-68
2022/08/26 05:04:11;;;;;;;6.63;2.92;;;;;;;23.45;95.69;100774.28;4991679;28;20041;-68
2022/08/26 05:06:37;;;;;;;8.50;3.10;;;;;;;23.49;95.45;100763.19;4994375;28;20479;-68
2022/08/26 05:09:03;;;;;;;4.18;2.63;;;;;;;23.50;95.41;100765.47;4988385;28;20033;-67
2022/08/26 05:11:28;;;;;;;8.35;3.70;;;;;;;23.44;95.14;100764.47;4986674;28;20482;-67
2022/08/26 05:13:54;;;;;;;10.20;3.03;;;;;;;23.47;95.63;100768.34;4989948;28;20042;-67
2022/08/26 05:16:19;;;;;;;9.13;2.88;;;;;;;23.38;96.36;100766.25;4991426;28;20030;-67
2022/08/26 05:18:45;;;;;;;7.80;3.63;;;;;;;23.52;95.87;100765.06;4988575;28;20486;-67
2022/08/26 05:21:22;;;;;;;7.00;3.30;;;;;;;23.61;95.42;100771.44;4992321;28;20022;-67
2022/08/26 05:23:53;;;;;;;6.97;3.58;;;;;;;23.62;94.96;100763.94;4989872;28;20038;-67
2022/08/26 05:26:21;;;;;;;6.47;2.97;;;;;;;23.54;95.82;100773.66;4992034;28;20034;-67
2022/08/26 05:28:46;;;;;;;6.50;2.90;;;;;;;23.61;95.94;100767.91;4989392;28;20089;-67
2022/08/26 05:31:18;;;;;;;5.63;2.90;;;;;;;23.67;95.98;100768.91;4984800;28;20038;-67
2022/08/26 05:33:45;;;;;;;9.10;3.17;;;;;;;23.77;95.22;100767.81;4986125;28;20030;-67
2022/08/26 05:36:14;;;;;;;4.78;2.75;;;;;;;23.85;95.00;100766.34;4990576;28;20034;-67
2022/08/26 05:38:40;;;;;;;7.43;2.83;;;;;;;23.86;94.44;100760.41;4988259;28;20038;-68
2022/08/26 05:41:27;;;;;;;5.00;2.80;;;;;;;23.76;94.38;100767.03;4990617;28;20117;-67
2022/08/26 05:43:54;;;;;;;7.55;3.65;;;;;;;23.79;95.13;100766.13;4987517;28;20063;-67
2022/08/26 05:46:20;;;;;;;7.10;3.38;;;;;;;23.88;94.98;100768.22;4990969;28;20034;-67
2022/08/26 05:48:46;;;;;;;5.60;3.38;;;;;;;23.85;94.64;100772.63;4990760;28;20057;-67
2022/08/26 05:51:12;;;;;;;6.50;3.50;;;;;;;23.98;94.92;100776.13;4987844;28;20038;-67
2022/08/26 05:53:39;;;;;;;5.40;3.42;;;;;;;24.09;94.35;100775.81;4987827;28;20498;-67
2022/08/26 05:56:07;;;;;;;7.15;3.67;;;;;;;24.10;93.79;100780.09;4984659;28;20487;-67
2022/08/26 05:58:34;;;;;;;8.38;4.00;;;;;;;24.20;93.57;100772.72;4987895;28;20034;-67
2022/08/26 06:01:00;;;;;;;6.43;3.00;;;;;;;24.29;92.91;100781.81;4988327;28;20038;-68
2022/08/26 06:03:26;;;;;;;6.60;3.35;;;;;;;24.29;93.03;100792.06;4985832;28;20579;-67
2022/08/26 06:05:51;;;;;;;6.30;3.22;;;;;;;24.00;94.29;100792.22;4976480;28;20035;-68
2022/08/26 06:08:19;;;;;;;9.65;4.63;;;;;;;24.12;94.05;100800.47;4982655;28;20038;-67
2022/08/26 06:10:54;;;;;;;8.13;3.72;;;;;;;24.25;93.73;100805.94;4974140;28;20479;-68
2022/08/26 06:13:22;;;;;;;8.88;3.95;;;;;;;24.18;93.97;100806.16;4983459;28;20093;-67
2022/08/26 06:15:49;;;;;;;6.18;3.78;;;;;;;24.17;94.11;100793.63;4984351;28;20490;-67
2022/08/26 06:18:18;;;;;;;9.57;3.90;;;;;;;24.27;93.63;100803.53;4987314;28;20034;-67
2022/08/26 06:20:46;;;;;;;7.22;3.60;;;;;;;24.28;93.58;100807.81;4966740;28;20022;-67
2022/08/26 06:25:59;;;;;;;8.26;3.98;;;;;;;24.55;93.26;100802.53;4972455;28;1128397;-67
2022/08/26 06:28:24;;;;;;;7.05;3.92;;;;;;;24.63;93.04;100779.03;4984073;28;20434;-67
2022/08/26 06:30:51;;;;;;;6.00;3.83;;;;;;;24.67;92.73;100785.19;4986845;28;20485;-67
2022/08/26 06:33:17;;;;;;;5.55;3.78;;;;;;;24.84;92.37;100783.81;4987167;28;20041;-67
2022/08/26 06:35:42;;;;;;;5.90;3.35;;;;;;;24.99;91.72;100790.34;4985297;28;20026;-67
2022/08/26 06:38:08;;;;;;;7.70;3.95;;;;;;;25.04;91.32;100787.03;4985096;28;20030;-67
2022/08/26 06:40:47;;;;;;;8.45;3.38;;;;;;;25.26;90.73;100775.94;4984191;28;20093;-67
2022/08/26 06:43:16;;;;;;;11.63;4.07;;;;;;;25.53;89.81;100778.84;4980288;28;20117;-67
2022/08/26 06:45:43;;;;;;;5.78;3.38;;;;;;;25.55;88.51;100775.66;4985806;28;20034;-68
2022/08/26 06:48:08;;;;;;;5.30;3.10;;;;;;;25.61;89.31;100782.88;4986685;28;20022;-67
2022/08/26 06:50:34;;;;;;;8.55;3.03;;;;;;;25.82;87.06;100778.50;4981692;28;20069;-67
2022/08/26 06:53:00;;;;;;;6.93;3.50;;;;;;;26.08;86.51;100777.06;4985433;28;20034;-67
2022/08/26 06:55:26;;;;;;;8.13;3.08;;;;;;;26.23;85.56;100780.75;4985226;28;20436;-67
2022/08/26 06:57:51;;;;;;;9.63;3.30;;;;;;;26.32;85.51;100778.00;4983835;28;20034;-66
2022/08/26 07:00:17;;;;;;;8.05;3.28;;;;;;;26.52;84.58;100786.59;4980508;28;20078;-67
2022/08/26 07:02:43;;;;;;;5.45;3.00;;;;;;;26.73;84.09;100796.00;4990502;28;20088;-68
2022/08/26 07:05:08;;;;;;;4.30;2.92;;;;;;;26.81;83.28;100797.22;4988634;28;20042;-68
2022/08/26 07:07:34;;;;;;;4.05;2.55;;;;;;;26.90;82.19;100793.69;4971540;28;20030;-67
2022/08/26 07:09:59;;;;;;;4.97;2.88;;;;;;;27.04;81.62;100796.56;4984780;28;20038;-67
2022/08/26 07:12:25;;;;;;;5.22;2.75;;;;;;;26.97;81.57;100796.88;4968206;28;20050;-66
2022/08/26 07:14:51;;;;;;;7.32;2.97;;;;;;;27.11;81.26;100796.25;4981645;28;20057;-67
2022/08/26 07:17:18;;;;;;;7.60;2.70;;;;;;;27.29;80.32;100798.22;4984729;28;20093;-68
2022/08/26 07:19:44;;;;;;;6.55;2.85;;;;;;;27.48;80.10;100797.72;4990468;28;20511;-68
2022/08/26 07:22:10;;;;;;;4.82;2.63;;;;;;;27.51;78.57;100804.28;4982594;28;20042;-67
2022/08/26 07:24:39;;;;;;;4.95;2.67;;;;;;;27.59;78.45;100797.97;4989365;28;20395;-67
2022/08/26 07:27:07;;;;;;;4.40;2.70;;;;;;;27.54;78.84;100803.38;4984180;28;20038;-67
2022/08/26 07:29:34;;;;;;;5.15;2.92;;;;;;;27.54;78.31;100800.59;4986549;28;20035;-67
2022/08/26 07:32:00;;;;;;;3.90;2.83;;;;;;;27.52;78.60;100803.84;4989597;28;20061;-68
2022/08/26 07:34:26;;;;;;;3.88;2.55;;;;;;;27.76;78.89;100795.56;4988217;28;20066;-67
2022/08/26 07:36:51;;;;;;;8.80;2.80;;;;;;;28.00;77.84;100799.16;4987112;28;20027;-67
2022/08/26 07:39:18;;;;;;;7.90;2.72;;;;;;;28.13;76.87;100793.38;4982188;28;20118;-67
2022/08/26 07:41:46;;;;;;;7.43;2.47;;;;;;;28.40;77.13;100793.19;4982240;28;20030;-67
2022/08/26 07:44:13;;;;;;;4.50;2.50;;;;;;;28.57;75.31;100799.88;4986707;28;20031;-67
2022/08/26 07:46:39;;;;;;;4.65;2.78;;;;;;;28.76;74.97;100794.94;4985019;28;20033;-66
2022/08/26 07:49:05;;;;;;;4.53;2.78;;;;;;;28.60;72.65;100795.38;4986811;28;20069;-66
2022/08/26 07:51:30;;;;;;;5.10;2.30;;;;;;;28.59;74.05;100797.38;4986493;28;20054;-66
2022/08/26 07:53:56;;;;;;;5.15;3.00;;;;;;;28.83;74.11;100795.31;4984680;28;20031;-66
2022/08/26 07:56:23;;;;;;;7.93;2.72;;;;;;;29.04;73.32;100794.19;4989955;28;20034;-66
2022/08/26 07:58:50;;;;;;;3.80;2.70;;;;;;;29.14;71.69;100794.88;4986973;28;20109;-66
2022/08/26 08:01:15;;;;;;;3.85;2.83;;;;;;;28.80;72.56;100795.50;4987204;28;20117;-66
2022/08/26 08:03:41;;;;;;;5.22;2.60;;;;;;;28.96;72.17;100798.56;4992291;28;20467;-66
2022/08/26 08:06:06;;;;;;;4.10;2.42;;;;;;;29.02;71.98;100795.91;4993142;28;20038;-67
2022/08/26 08:08:34;;;;;;;4.22;2.53;;;;;;;29.26;71.65;100799.38;4993070;28;20022;-66
2022/08/26 08:11:00;;;;;;;3.33;2.05;;;;;;;29.43;70.97;100792.09;4985852;28;20461;-66
2022/08/26 08:13:26;;;;;;;3.83;2.53;;;;;;;29.56;69.94;100803.63;4992900;28;20041;-66
2022/08/26 08:15:52;;;;;;;3.60;2.53;;;;;;;29.62;70.29;100793.38;4981680;28;20584;-67
2022/08/26 08:18:19;;;;;;;3.50;2.60;;;;;;;29.70;71.14;100794.50;4980686;28;20292;-66
2022/08/26 08:20:45;;;;;;;5.30;2.72;;;;;;;29.65;69.58;100806.31;4992800;28;20023;-67
2022/08/26 08:23:10;;;;;;;4.85;2.80;;;;;;;29.81;68.43;100808.59;4984719;28;20069;-67
2022/08/26 08:25:36;;;;;;;4.53;2.85;;;;;;;30.04;68.39;100802.09;4991612;28;20131;-66
2022/08/26 08:28:01;;;;;;;5.65;2.78;;;;;;;29.99;68.32;100805.56;4993282;28;20029;-67
2022/08/26 08:30:27;;;;;;;3.90;2.50;;;;;;;30.31;66.87;100817.66;4990097;28;20562;-68
2022/08/26 08:32:53;;;;;;;8.20;2.83;;;;;;;29.92;66.46;100819.88;4991689;28;20118;-66
2022/08/26 08:35:21;;;;;;;7.00;3.20;;;;;;;30.25;66.54;100817.53;4985618;28;20042;-67
2022/08/26 08:37:49;;;;;;;4.32;2.60;;;;;;;29.99;65.18;100816.69;4976010;28;20121;-66
2022/08/26 08:40:16;;;;;;;4.68;2.40;;;;;;;30.02;66.60;100812.91;4989685;28;20499;-68
2022/08/26 08:43:05;;;;;;;4.13;2.90;;;;;;;30.38;65.97;100813.66;4985877;28;20046;-67
2022/08/26 08:45:38;;;;;;;3.97;2.70;;;;;;;30.27;64.41;100817.81;4985194;28;20049;-67
2022/08/26 08:48:05;;;;;;;4.32;2.28;;;;;;;30.60;65.41;100819.50;4986455;28;20125;-68
2022/08/26 08:50:35;;;;;;;8.15;2.42;;;;;;;30.93;63.78;100823.41;4986422;28;20038;-67
2022/08/26 08:53:11;;;;;;;2.85;2.40;;;;;;;31.09;63.20;100828.38;4987957;28;20118;-67
2022/08/26 08:56:03;;;;;;;4.05;2.50;;;;;;;31.31;59.92;100821.47;4985140;28;20030;-67
2022/08/26 08:58:40;;;;;;;7.75;2.65;;;;;;;31.43;61.15;100818.34;4985633;28;20141;-67
2022/08/26 09:01:13;;;;;;;5.45;2.40;;;;;;;31.11;62.31;100819.53;4991986;28;20042;-67
2022/08/26 09:04:20;;;;;;;4.28;2.80;;;;;;;31.51;58.45;100822.19;4986661;28;20038;-66
2022/08/26 09:06:50;;;;;;;3.67;2.38;;;;;;;31.63;59.16;100821.00;4932319;28;20049;-66
2022/08/26 09:09:25;;;;;;;4.47;2.72;;;;;;;31.61;58.49;100812.38;4989283;28;20498;-66
2022/08/26 09:11:51;;;;;;;5.07;2.53;;;;;;;31.88;59.49;100811.03;4985305;28;20042;-67
2022/08/26 09:14:17;;;;;;;3.47;2.53;;;;;;;31.80;58.64;100798.84;4985527;28;20093;-66
2022/08/26 09:16:56;;;;;;;4.40;2.45;;;;;;;32.10;59.16;100799.25;4990243;28;20053;-66
2022/08/26 09:19:31;;;;;;;7.32;2.72;;;;;;;32.13;58.41;100806.63;4986016;28;20100;-67
2022/08/26 09:21:59;;;;;;;4.60;2.80;;;;;;;32.33;57.41;100795.28;4985005;28;20073;-66
2022/08/26 09:24:25;;;;;;;3.58;2.50;;;;;;;32.59;56.74;100801.50;4988009;28;20112;-66
2022/08/26 09:26:51;;;;;;;5.30;2.42;;;;;;;32.81;56.43;100805.09;4983852;28;20399;-66
2022/08/26 09:29:29;;;;;;;5.30;2.50;;;;;;;32.98;55.30;100794.00;4986687;28;20041;-67
2022/08/26 09:32:19;;;;;;;3.97;2.53;;;;;;;33.16;55.31;100801.88;4980855;28;20038;-67
2022/08/26 09:35:07;;;;;;;3.60;2.30;;;;;;;33.19;53.64;100795.28;4991105;28;20018;-66
2022/08/26 09:37:43;;;;;;;4.72;2.33;;;;;;;33.30;53.13;100795.28;4990525;28;20053;-66
2022/08/26 09:40:21;;;;;;;4.40;2.40;;;;;;;33.31;54.29;100798.84;4990982;28;20058;-66
2022/08/26 09:42:46;;;;;;;2.88;2.17;;;;;;;33.08;53.64;100800.09;4986511;28;20106;-66
2022/08/26 09:45:12;;;;;;;5.60;2.20;;;;;;;33.16;53.28;100799.06;4978305;28;21329;-66
2022/08/26 09:47:46;;;;;;;3.65;2.40;;;;;;;33.24;53.20;100796.53;4984009;28;20027;-66
2022/08/26 09:50:22;;;;;;;8.75;2.80;;;;;;;33.47;53.88;100790.44;4986084;28;20471;-67
2022/08/26 09:53:12;;;;;;;7.10;2.72;;;;;;;33.65;52.43;100795.50;4982896;28;20049;-66
2022/08/26 09:55:41;;;;;;;3.42;2.53;;;;;;;33.12;52.05;100792.97;4986425;28;20105;-66
2022/08/26 09:58:11;;;;;;;3.70;2.33;;;;;;;33.21;52.36;100792.75;4991528;28;20058;-67
2022/08/26 10:00:41;;;;;;;6.50;2.30;;;;;;;32.76;52.60;100779.97;4985992;28;20030;-66
2022/08/26 10:03:21;;;;;;;4.20;2.37;;;;;;;32.49;53.58;100777.88;4990740;28;20514;-67
2022/08/26 10:05:57;;;;;;;3.45;2.30;;;;;;;32.14;54.10;100774.69;4991718;28;20300;-66
2022/08/26 10:08:40;;;;;;;6.95;2.88;;;;;;;32.13;56.81;100776.72;4981342;28;20042;-66
2022/08/26 10:11:31;;;;;;;4.63;1.75;;;;;;;32.26;56.08;100776.25;4989002;28;20092;-66
2022/08/26 10:14:18;;;;;;;3.63;2.03;;;;;;;32.43;55.20;100771.50;4972206;28;20129;-66
2022/08/26 10:16:53;;;;;;;3.00;2.17;;;;;;;32.51;55.15;100778.91;4991340;28;20128;-66
2022/08/26 10:19:24;;;;;;;8.35;2.50;;;;;;;32.58;54.10;100769.28;4990980;28;20070;-66
2022/08/26 10:21:56;;;;;;;5.00;2.17;;;;;;;32.57;54.42;100768.53;4989073;28;20034;-67
2022/08/26 10:24:36;;;;;;;6.25;2.35;;;;;;;33.01;53.74;100769.88;4983464;28;20474;-66
2022/08/26 10:27:15;;;;;;;3.85;2.03;;;;;;;33.14;52.13;100765.28;5020818;22;20052;-68
2022/08/26 10:29:47;;;;;;;3.10;1.92;;;;;;;33.38;52.83;100767.56;5009475;28;20050;-68
2022/08/26 10:32:22;;;;;;;2.92;2.03;;;;;;;33.29;52.36;100759.47;5010789;28;20083;-68
2022/08/26 10:34:47;;;;;;;7.05;2.33;;;;;;;33.13;52.54;100751.84;5006860;28;20033;-68
2022/08/26 10:37:17;;;;;;;7.47;2.25;;;;;;;33.19;52.63;100755.41;5016831;28;20096;-68
2022/08/26 10:39:49;;;;;;;3.78;1.90;;;;;;;33.34;51.58;100750.31;5011177;28;20030;-68
2022/08/26 10:42:46;;;;;;;7.03;2.90;;;;;;;33.23;51.33;100741.94;5010345;28;20037;-69
2022/08/26 10:45:18;;;;;;;4.80;2.00;;;;;;;33.59;50.35;100733.28;5007586;28;20053;-68
2022/08/26 10:48:08;;;;;;;8.20;2.20;;;;;;;33.67;50.41;100739.09;5008304;28;20508;-69
2022/08/26 10:50:45;;;;;;;5.55;2.30;;;;;;;34.04;50.18;100731.09;5017717;28;20065;-70
2022/08/26 10:53:19;;;;;;;6.15;2.13;;;;;;;34.41;49.01;100733.44;5016668;28;20030;-69
2022/08/26 10:55:51;;;;;;;3.90;2.03;;;;;;;34.39;48.08;100731.19;5015547;28;20041;-69
2022/08/26 10:58:35;;;;;;;8.07;2.30;;;;;;;34.71;47.32;100720.28;5017326;28;20438;-69
2022/08/26 11:04:28;;;;;;;6.95;1.75;;;;;;;35.10;46.94;100725.59;5009540;28;20057;-70
2022/08/26 11:07:31;;;;;;;4.47;1.90;;;;;;;35.28;45.99;100720.09;5002385;28;20029;-70
2022/08/26 11:09:59;;;;;;;2.72;1.58;;;;;;;35.53;44.99;100711.69;5010166;28;20030;-70
2022/08/26 11:12:33;;;;;;;3.10;2.20;;;;;;;35.40;45.90;100704.66;5010667;28;20042;-69
2022/08/26 11:14:59;;;;;;;3.30;2.33;;;;;;;35.02;45.65;100705.03;5005725;28;20092;-69
2022/08/26 11:17:43;;;;;;;3.13;1.98;;;;;;;34.91;45.98;100705.88;5009629;28;20038;-70
2022/08/26 11:20:31;;;;;;;3.42;1.90;;;;;;;34.72;45.94;100698.66;5009446;28;20034;-69
2022/08/26 11:23:13;;;;;;;1.63;1.45;;;;;;;34.72;46.65;100687.44;4998803;28;20131;-69
2022/08/26 11:25:57;;;;;;;3.55;1.70;;;;;;;34.80;46.53;100685.59;5007017;28;20046;-70
2022/08/26 11:28:43;;;;;;;4.93;1.98;;;;;;;34.76;46.03;100680.28;4996009;28;20379;-69
2022/08/26 11:31:38;;;;;;;3.38;1.60;;;;;;;34.86;45.69;100672.31;5003659;28;20490;-69
2022/08/26 11:34:07;;;;;;;4.55;2.08;;;;;;;34.79;45.87;100670.84;4997123;28;20104;-69
2022/08/26 11:36:35;;;;;;;3.20;1.77;;;;;;;34.47;45.55;100665.00;5002422;28;20562;-68
2022/08/26 11:39:28;;;;;;;5.82;1.92;;;;;;;33.99;45.82;100658.41;5000163;28;20471;-68
2022/08/26 11:42:17;;;;;;;5.57;2.28;;;;;;;34.16;46.63;100639.50;5001123;28;20030;-69
2022/08/26 11:44:43;;;;;;;4.18;1.90;;;;;;;34.33;45.78;100646.50;5000309;28;20041;-68
2022/08/26 11:47:13;;;;;;;4.70;2.10;;;;;;;34.68;45.55;100644.97;5003005;28;20034;-69